createdAt,value
2018-06-13T00:00:29.385Z,80.20
2018-06-13T00:03:32.650Z,80.60
2018-06-13T00:06:35.870Z,80.80
2018-06-13T00:09:39.153Z,81.00
2018-06-13T00:12:42.385Z,81.20
2018-06-13T00:15:45.605Z,81.40
2018-06-13T00:21:51.855Z,82.00
2018-06-13T00:24:55.159Z,81.80
2018-06-13T00:27:58.560Z,81.40
2018-06-13T00:31:01.742Z,81.30
2018-06-13T00:34:05.022Z,81.70
2018-06-13T00:37:08.256Z,81.80
2018-06-13T00:43:14.426Z,82.60
2018-06-13T00:46:18.518Z,82.80
2018-06-13T00:49:21.709Z,83.10
2018-06-13T00:52:24.950Z,83.30
2018-06-13T00:55:28.218Z,83.40
2018-06-13T00:58:31.414Z,83.20
2018-06-13T01:01:34.660Z,83.20
2018-06-13T01:04:37.974Z,83.30
2018-06-13T01:07:41.252Z,83.40
2018-06-13T01:10:44.518Z,83.30
2018-06-13T01:16:50.611Z,83.50
2018-06-13T01:19:53.948Z,83.70
2018-06-13T01:22:57.204Z,84.10
2018-06-13T01:26:00.486Z,84.30
2018-06-13T01:32:06.818Z,84.70
2018-06-13T01:35:09.998Z,84.80
2018-06-13T01:38:13.375Z,84.90
2018-06-13T01:41:20.605Z,85.50
2018-06-13T01:44:23.845Z,85.40
2018-06-13T01:47:27.116Z,85.40
2018-06-13T01:50:30.321Z,85.60
2018-06-13T01:53:33.587Z,85.60
2018-06-13T01:56:36.785Z,85.60
2018-06-13T01:59:40.114Z,85.60
2018-06-13T02:02:43.310Z,85.50
2018-06-13T02:05:46.533Z,85.50
2018-06-13T02:08:49.753Z,86.30
2018-06-13T02:11:53.022Z,85.60
2018-06-13T02:14:56.241Z,85.70
2018-06-13T02:17:59.390Z,85.70
2018-06-13T02:24:05.806Z,85.90
2018-06-13T02:27:09.030Z,85.70
2018-06-13T02:30:12.325Z,85.90
2018-06-13T02:33:15.556Z,85.70
2018-06-13T02:39:21.814Z,86.40
2018-06-13T02:42:25.014Z,85.70
2018-06-13T02:45:28.274Z,85.80
2018-06-13T02:48:31.562Z,85.70
2018-06-13T02:51:34.818Z,85.90
2018-06-13T02:57:41.169Z,86.00
2018-06-13T03:00:44.482Z,86.20
2018-06-13T03:03:47.687Z,86.20
2018-06-13T03:06:50.950Z,86.30
2018-06-13T03:09:54.138Z,86.30
2018-06-13T03:12:57.414Z,86.50
2018-06-13T03:16:00.706Z,86.40
2018-06-13T03:19:03.881Z,86.60
2018-06-13T03:25:10.246Z,87.00
2018-06-13T03:28:13.385Z,87.00
2018-06-13T03:31:16.605Z,87.10
2018-06-13T03:34:19.919Z,87.30
2018-06-13T03:37:23.165Z,87.30
2018-06-13T03:40:26.483Z,87.40
2018-06-13T03:43:29.800Z,87.70
2018-06-13T03:46:33.048Z,87.80
2018-06-13T03:49:36.370Z,87.60
2018-06-13T03:52:39.571Z,87.70
2018-06-13T03:55:42.763Z,87.50
2018-06-13T03:58:46.054Z,87.80
2018-06-13T04:01:49.289Z,87.30
2018-06-13T04:04:52.459Z,87.40
2018-06-13T04:07:55.638Z,87.50
2018-06-13T04:10:58.925Z,87.60
2018-06-13T04:14:02.306Z,87.50
2018-06-13T04:17:05.653Z,87.70
2018-06-13T04:20:08.832Z,87.10
2018-06-13T04:23:12.120Z,87.30
2018-06-13T04:26:15.419Z,85.70
2018-06-13T04:29:18.626Z,85.20
2018-06-13T04:32:22.031Z,84.90
2018-06-13T04:35:25.234Z,84.40
2018-06-13T04:38:28.510Z,83.70
2018-06-13T04:41:31.818Z,84.00
2018-06-13T04:44:35.011Z,83.90
2018-06-13T04:47:38.226Z,83.70
2018-06-13T04:50:41.553Z,83.90
2018-06-13T04:53:44.746Z,84.00
2018-06-13T04:56:48.024Z,84.00
2018-06-13T04:59:51.286Z,84.40
2018-06-13T05:02:54.641Z,83.90
2018-06-13T05:05:57.954Z,83.70
2018-06-13T05:09:01.263Z,84.40
2018-06-13T05:12:04.594Z,84.20
2018-06-13T05:27:19.914Z,84.60
2018-06-13T05:30:23.313Z,84.20
2018-06-13T05:33:26.653Z,83.80
2018-06-13T05:39:32.743Z,83.20
2018-06-13T05:42:35.962Z,82.00
2018-06-13T05:45:39.233Z,81.80
2018-06-13T05:51:45.578Z,81.30
2018-06-13T05:54:53.627Z,81.80
2018-06-13T05:57:56.829Z,81.60
2018-06-13T06:04:03.023Z,81.70
2018-06-13T06:07:06.275Z,81.10
2018-06-13T06:10:09.571Z,81.00
2018-06-13T06:13:12.874Z,80.90
2018-06-13T06:16:16.154Z,80.50
2018-06-13T06:19:19.552Z,80.90
2018-06-13T06:22:22.826Z,80.80
2018-06-13T06:25:26.009Z,80.30
2018-06-13T06:28:29.222Z,79.90
2018-06-13T06:31:32.454Z,79.10
2018-06-13T06:34:35.740Z,79.40
2018-06-13T06:37:39.713Z,79.50
2018-06-13T06:40:43.082Z,78.90
2018-06-13T06:43:46.353Z,79.30
2018-06-13T06:46:49.630Z,79.60
2018-06-13T06:49:52.851Z,80.00
2018-06-13T06:52:56.098Z,80.40
2018-06-13T06:55:59.448Z,79.60
2018-06-13T07:02:05.691Z,79.60
2018-06-13T07:05:08.858Z,79.50
2018-06-13T07:08:22.506Z,79.80
2018-06-13T07:11:25.722Z,79.70
2018-06-13T07:14:28.951Z,79.80
2018-06-13T07:20:35.284Z,81.10
2018-06-13T07:23:38.599Z,81.30
2018-06-13T07:26:41.987Z,81.50
2018-06-13T07:29:45.232Z,81.90
2018-06-13T07:35:51.558Z,81.30
2018-06-13T07:38:54.814Z,80.90
2018-06-13T07:45:01.084Z,79.60
2018-06-13T07:51:07.375Z,78.50
2018-06-13T07:54:10.658Z,79.00
2018-06-13T07:57:13.825Z,78.50
2018-06-13T08:00:17.026Z,77.40
2018-06-13T08:03:20.266Z,77.40
2018-06-13T08:06:23.485Z,76.60
2018-06-13T08:09:26.737Z,76.00
2018-06-13T08:15:33.031Z,75.50
2018-06-13T08:18:36.268Z,74.50
2018-06-13T08:21:39.484Z,74.70
2018-06-13T08:24:53.338Z,74.90
2018-06-13T08:27:56.553Z,74.90
2018-06-13T08:30:59.693Z,74.80
2018-06-13T08:34:02.802Z,75.80
2018-06-13T08:37:05.877Z,76.60
2018-06-13T08:40:08.963Z,77.70
2018-06-13T08:43:12.057Z,76.90
2018-06-13T08:46:15.154Z,77.40
2018-06-13T08:49:18.221Z,77.30
2018-06-13T08:52:21.350Z,77.10
2018-06-13T08:55:24.449Z,77.60
2018-06-13T08:58:27.517Z,76.80
2018-06-13T09:01:30.594Z,76.70
2018-06-13T09:04:33.661Z,76.50
2018-06-13T09:10:39.590Z,75.50
2018-06-13T09:13:42.665Z,74.30
2018-06-13T09:16:45.737Z,72.20
2018-06-13T09:19:48.837Z,71.60
2018-06-13T09:22:52.172Z,72.10
2018-06-13T09:25:55.300Z,72.50
2018-06-13T09:32:01.226Z,72.30
2018-06-13T09:35:04.321Z,71.80
2018-06-13T09:38:07.385Z,71.30
2018-06-13T09:41:10.493Z,71.10
2018-06-13T09:44:13.597Z,70.20
2018-06-13T09:47:23.456Z,69.20
2018-06-13T09:50:19.771Z,68.30
2018-06-13T09:53:22.813Z,67.60
2018-06-13T09:59:34.285Z,65.70
2018-06-13T10:02:37.891Z,66.70
2018-06-13T10:05:40.969Z,67.70
2018-06-13T10:08:44.131Z,68.30
2018-06-13T10:14:50.084Z,71.40
2018-06-13T10:17:53.121Z,71.10
2018-06-13T10:20:56.245Z,71.80
2018-06-13T10:23:59.309Z,72.30
2018-06-13T10:27:06.642Z,72.50
2018-06-13T10:30:09.717Z,72.80
2018-06-13T10:33:12.802Z,71.00
2018-06-13T10:36:15.882Z,69.90
2018-06-13T10:39:18.953Z,70.00
2018-06-13T10:42:22.032Z,69.80
2018-06-13T10:45:25.117Z,71.20
2018-06-13T10:48:28.202Z,72.50
2018-06-13T10:54:37.369Z,75.60
2018-06-13T10:57:40.429Z,76.20
2018-06-13T11:00:43.526Z,76.70
2018-06-13T11:06:49.542Z,76.70
2018-06-13T11:09:52.630Z,76.60
2018-06-13T11:12:55.771Z,76.00
2018-06-13T11:15:58.951Z,76.30
2018-06-13T11:19:02.014Z,75.50
2018-06-13T11:22:05.095Z,74.30
2018-06-13T11:25:08.157Z,73.40
2018-06-13T11:31:14.090Z,71.30
2018-06-13T11:34:17.154Z,69.50
2018-06-13T11:37:20.254Z,67.90
2018-06-13T11:40:23.321Z,65.50
2018-06-13T11:43:26.405Z,66.00
2018-06-13T11:46:29.510Z,66.90
2018-06-13T11:49:32.573Z,68.20
2018-06-13T11:55:38.497Z,69.40
2018-06-13T11:58:41.585Z,69.40
2018-06-13T12:01:44.721Z,69.60
2018-06-13T12:04:49.952Z,69.50
2018-06-13T12:07:53.116Z,69.50
2018-06-13T12:10:56.204Z,69.80
2018-06-13T12:13:59.281Z,70.80
2018-06-13T12:17:02.401Z,72.40
2018-06-13T12:20:05.429Z,73.30
2018-06-13T12:26:11.374Z,74.20
2018-06-13T12:29:14.785Z,72.90
2018-06-13T12:32:17.857Z,73.20
2018-06-13T12:35:20.926Z,73.50
2018-06-13T12:38:41.135Z,72.50
2018-06-13T12:41:44.229Z,71.20
2018-06-13T12:44:47.321Z,70.50
2018-06-13T12:47:50.425Z,69.30
2018-06-13T12:50:53.536Z,69.10
2018-06-13T12:53:56.572Z,68.80
2018-06-13T12:56:59.653Z,67.70
2018-06-13T13:00:02.729Z,68.10
2018-06-13T13:03:05.889Z,68.40
2018-06-13T13:06:08.977Z,67.50
2018-06-13T13:09:13.514Z,66.10
2018-06-13T13:12:16.598Z,66.10
2018-06-13T13:15:19.649Z,67.80
2018-06-13T13:18:22.728Z,67.60
2018-06-13T13:21:25.790Z,68.40
2018-06-13T13:24:28.871Z,68.10
2018-06-13T13:27:38.573Z,68.90
2018-06-13T13:30:41.626Z,70.10
2018-06-13T13:36:47.629Z,70.90
2018-06-13T13:39:50.687Z,71.90
2018-06-13T13:42:53.745Z,72.00
2018-06-13T13:45:56.880Z,72.60
2018-06-13T13:48:59.898Z,73.00
2018-06-13T13:52:02.997Z,73.20
2018-06-13T13:55:06.177Z,73.90
2018-06-13T13:58:09.265Z,73.60
2018-06-13T14:01:12.341Z,73.70
2018-06-13T14:04:15.435Z,73.30
2018-06-13T14:10:21.372Z,71.40
2018-06-13T14:13:24.470Z,71.40
2018-06-13T14:16:27.590Z,69.90
2018-06-13T14:19:31.046Z,69.80
2018-06-13T14:22:34.171Z,69.30
2018-06-13T14:25:37.208Z,69.10
2018-06-13T14:28:40.287Z,68.10
2018-06-13T14:31:43.366Z,68.90
2018-06-13T14:34:46.433Z,67.90
2018-06-13T14:37:49.500Z,66.90
2018-06-13T14:40:52.569Z,66.20
2018-06-13T14:43:55.626Z,65.40
2018-06-13T14:46:58.685Z,66.20
2018-06-13T14:50:01.753Z,66.70
2018-06-13T14:53:04.802Z,67.80
2018-06-13T14:56:13.674Z,69.20
2018-06-13T14:59:16.755Z,70.50
2018-06-13T15:02:19.852Z,72.10
2018-06-13T15:05:23.303Z,73.10
2018-06-13T15:11:29.246Z,73.40
2018-06-13T15:14:32.349Z,73.20
2018-06-13T15:17:35.419Z,72.70
2018-06-13T15:20:42.436Z,73.10
2018-06-13T15:23:45.657Z,73.10
2018-06-13T15:26:48.821Z,72.60
2018-06-13T15:32:54.849Z,74.00
2018-06-13T15:35:57.924Z,72.60
2018-06-13T15:39:00.985Z,72.30
2018-06-13T15:45:06.987Z,71.90
2018-06-13T15:48:10.045Z,72.00
2018-06-13T15:51:13.107Z,71.70
2018-06-13T15:54:16.181Z,71.80
2018-06-13T15:57:19.248Z,71.00
2018-06-13T16:00:22.341Z,70.10
2018-06-13T16:03:25.407Z,70.10
2018-06-13T16:09:31.426Z,70.30
2018-06-13T16:12:49.387Z,69.30
2018-06-13T16:15:52.450Z,69.20
2018-06-13T16:18:55.488Z,69.10
2018-06-13T16:21:58.589Z,67.70
2018-06-13T16:25:01.654Z,68.40
2018-06-13T16:28:04.750Z,68.30
2018-06-13T16:31:07.825Z,68.30
2018-06-13T16:34:10.888Z,68.70
2018-06-13T16:37:13.997Z,68.60
2018-06-13T16:40:17.058Z,69.00
2018-06-13T16:43:20.169Z,69.30
2018-06-13T16:46:23.262Z,70.00
2018-06-13T16:49:26.328Z,70.20
2018-06-13T16:58:40.697Z,72.00
2018-06-13T17:01:43.761Z,72.50
2018-06-13T17:04:46.826Z,72.70
2018-06-13T17:07:49.936Z,72.60
2018-06-13T17:10:53.014Z,73.30
2018-06-13T17:13:56.083Z,73.50
2018-06-13T17:17:23.189Z,72.60
2018-06-13T17:20:26.282Z,72.00
2018-06-13T17:23:29.573Z,72.40
2018-06-13T17:26:32.642Z,72.80
2018-06-13T17:29:35.693Z,72.90
2018-06-13T17:35:41.663Z,71.90
2018-06-13T17:38:44.734Z,72.40
2018-06-13T17:41:47.830Z,72.40
2018-06-13T17:44:50.887Z,72.50
2018-06-13T17:47:54.332Z,72.40
2018-06-13T17:50:57.373Z,72.80
2018-06-13T17:54:00.467Z,73.40
2018-06-13T17:57:03.523Z,73.50
2018-06-13T18:00:06.605Z,73.80
2018-06-13T18:06:12.523Z,74.00
2018-06-13T18:09:15.725Z,74.00
2018-06-13T18:12:18.793Z,74.20
2018-06-13T18:15:21.850Z,74.40
2018-06-13T18:18:24.902Z,74.70
2018-06-13T18:21:28.021Z,74.30
2018-06-13T18:24:31.137Z,74.30
2018-06-13T18:30:37.073Z,74.30
2018-06-13T18:33:40.152Z,74.30
2018-06-13T18:36:43.362Z,74.20
2018-06-13T18:39:46.468Z,74.30
2018-06-13T18:42:49.537Z,74.60
2018-06-13T18:45:52.586Z,74.70
2018-06-13T18:48:55.649Z,75.20
2018-06-13T18:51:58.773Z,75.40
2018-06-13T18:55:01.892Z,76.00
2018-06-13T18:58:04.945Z,75.00
2018-06-13T19:07:13.798Z,75.40
2018-06-13T19:10:16.825Z,75.50
2018-06-13T19:13:19.918Z,75.60
2018-06-13T19:16:22.996Z,75.60
2018-06-13T19:19:26.105Z,76.00
2018-06-13T19:22:29.181Z,76.40
2018-06-13T19:25:32.245Z,76.60
2018-06-13T19:28:35.333Z,76.70
2018-06-13T19:31:38.404Z,76.80
2018-06-13T19:34:41.485Z,76.80
2018-06-13T19:37:44.677Z,77.00
2018-06-13T19:40:47.781Z,77.20
2018-06-13T19:43:50.861Z,77.50
2018-06-13T19:46:56.521Z,77.70
2018-06-13T19:49:59.614Z,77.90
2018-06-13T19:53:08.145Z,78.10
2018-06-13T19:56:12.153Z,78.50
2018-06-13T19:59:15.230Z,78.60
2018-06-13T20:02:18.310Z,78.30
2018-06-13T20:05:26.796Z,78.30
2018-06-13T20:08:29.877Z,78.20
2018-06-13T20:11:32.949Z,78.30
2018-06-13T20:17:50.379Z,79.10
2018-06-13T20:20:53.449Z,78.50
2018-06-13T20:23:56.530Z,78.50
2018-06-13T20:27:05.090Z,78.70
2018-06-13T20:30:13.639Z,78.90
2018-06-13T20:33:23.037Z,79.10
2018-06-13T20:36:26.100Z,79.30
2018-06-13T20:39:29.190Z,79.30
2018-06-13T20:42:32.310Z,79.50
2018-06-13T20:45:35.377Z,79.60
2018-06-13T20:48:38.429Z,79.60
2018-06-13T20:51:41.515Z,80.00
2018-06-13T20:54:44.617Z,80.10
2018-06-13T20:57:47.701Z,79.70
2018-06-13T21:03:53.697Z,79.50
2018-06-13T21:06:56.780Z,80.00
2018-06-13T21:09:59.870Z,79.40
2018-06-13T21:13:02.959Z,79.40
2018-06-13T21:19:08.904Z,79.30
2018-06-13T21:22:11.982Z,79.10
2018-06-13T21:25:15.070Z,79.00
2018-06-13T21:28:18.138Z,78.90
2018-06-13T21:31:21.226Z,79.10
2018-06-13T21:34:24.299Z,79.20
2018-06-13T21:37:27.362Z,79.50
2018-06-13T21:40:30.421Z,79.60
2018-06-13T21:43:33.476Z,79.80
2018-06-13T21:46:36.544Z,79.80
2018-06-13T21:52:42.489Z,80.70
2018-06-13T21:55:45.560Z,80.90
2018-06-13T21:58:48.666Z,81.00
2018-06-13T22:01:51.869Z,81.00
2018-06-13T22:04:54.929Z,81.00
2018-06-13T22:07:58.005Z,81.20
2018-06-13T22:11:01.081Z,81.60
2018-06-13T22:14:04.157Z,81.30
2018-06-13T22:20:10.108Z,81.00
2018-06-13T22:23:13.198Z,81.00
2018-06-13T22:26:16.252Z,80.60
2018-06-13T22:29:19.317Z,80.50
2018-06-13T22:35:25.289Z,80.60
2018-06-13T22:38:28.361Z,80.40
2018-06-13T22:41:31.458Z,80.40
2018-06-13T22:44:34.549Z,80.30
2018-06-13T22:47:37.601Z,80.60
2018-06-13T22:50:40.682Z,80.90
2018-06-13T22:53:43.741Z,80.80
2018-06-13T22:59:49.707Z,81.10
2018-06-13T23:02:52.778Z,81.30
2018-06-13T23:05:55.861Z,81.90
2018-06-13T23:08:58.926Z,81.80
2018-06-13T23:12:02.022Z,81.90
2018-06-13T23:15:05.294Z,82.20
2018-06-13T23:18:08.374Z,82.50
2018-06-13T23:27:17.163Z,82.90
2018-06-13T23:30:20.237Z,83.30
2018-06-13T23:33:23.330Z,83.40
2018-06-13T23:36:26.426Z,83.10
2018-06-13T23:39:29.515Z,83.40
2018-06-13T23:42:32.572Z,83.90
2018-06-13T23:45:35.637Z,85.60
2018-06-13T23:48:38.705Z,85.60
2018-06-13T23:51:41.790Z,85.50
2018-06-13T23:54:44.881Z,85.70
2018-06-13T23:57:47.980Z,85.70
